Millenium Air

Millenium Air Since 1998



 METAR AND TAF INFORMATION
METAR FOR EPSY
ADDS - METARS form results

(1219 UTC 22 October 2019)
Data provider http://aviationweather.gov/metar/data/
 
METAR text: EPSY 221200Z VRB03KT CAVOK 20/14 Q1022
Conditions at: EPSY (SZYMANY , PL) observed 1200 UTC 22 October 2019
Temperature: 20.0°C (68°F)
Dewpoint: 14.0°C (57°F) [RH = 68%]
Pressure (altimeter): 30.18 inches Hg (1022.0 mb)
Winds: variable direction winds at 3 MPH (3 knots; 1.5 m/s)
Visibility: 6 or more miles (10+ km)
Ceiling: ceiling and visibility are OK
Clouds: unknown
Weather: no significant weather observed at this time

METAR text: EPSY 221130Z 27003KT 230V320 CAVOK 20/13 Q1022
Conditions at: EPSY (SZYMANY , PL) observed 1130 UTC 22 October 2019
Temperature: 20.0°C (68°F)
Dewpoint: 13.0°C (55°F) [RH = 64%]
Pressure (altimeter): 30.18 inches Hg (1022.0 mb)
Winds: from the W (270 degrees) at 3 MPH (3 knots; 1.5 m/s)
Visibility: 6 or more miles (10+ km)
Ceiling: ceiling and visibility are OK
Clouds: unknown
Weather: no significant weather observed at this time

Forecast for: EPSY (SZYMANY , PL)
Text: TAF EPSY 221130Z 2212/2221 VRB02KT CAVOK
Forecast period: 1200 to 1600 UTC 22 October 2019
Forecast type: FROM: standard forecast or significant change
Winds: variable direction winds at 2 MPH (2 knots; 1.0 m/s)
Visibility: 6 or more miles 10+ km)
Ceiling: unknown
Clouds: missing
Weather: NSW  (no significant weather)
Text: BECMG 2216/2218 3000 BR
Forecast period: 1600 to 2100 UTC 22 October 2019
Forecast type: BECOMING: Conditions expected to become as follows by 1800 UTC 22 October 2019
Winds: variable direction winds at 2 MPH (2 knots; 1.0 m/s)
Visibility: 1.86 miles (2.99 km)
Ceiling: unknown
Clouds: missing
Weather: BR  (mist)
Text: PROB40
Forecast period: 1800 to 2100 UTC 22 October 2019
Forecast type: TEMPORARY: The following changes expected for less than half the time period
Visibility: 0.31 miles (0.50 km)
Ceiling: unknown
Clouds: missing
Weather: FG  (fog)

 AIRPORT MAP

 RUNWAY INFORMATION
Runway 02 Runway length 6562 ft Runway width 197 ft
Runway elevation 438 ft Runway displaced threshold 0 ft Runway heading 19
Runway 20 Runway length 6562 ft Runway width 197 ft
Runway elevation 462 ft Runway displaced threshold 0 ft Runway heading 199

 AIRPORT FREQUENCIES
Type TWR Name SZCZYTNO I Frequency 118.025 MHZ

 AIRPORT NEAR NAVIGATION AIDS
Type NDB Name Szczytno Frequency 288 KHZ